sensor_id;sensor_type;location;lat;lon;timestamp;temperature;humidity
13898;DHT22;7019;50.766;4.474;2023-04-01T00:02:03;9.10;99.90
13898;DHT22;7019;50.766;4.474;2023-04-01T00:04:31;9.10;99.90
13898;DHT22;7019;50.766;4.474;2023-04-01T00:06:59;9.10;99.90
13898;DHT22;7019;50.766;4.474;2023-04-01T00:09:27;9.10;99.90
13898;DHT22;7019;50.766;4.474;2023-04-01T00:11:54;9.10;99.90
13898;DHT22;7019;50.766;4.474;2023-04-01T00:14:21;9.10;99.90
13898;DHT22;7019;50.766;4.474;2023-04-01T00:16:48;9.10;99.90
13898;DHT22;7019;50.766;4.474;2023-04-01T00:19:15;9.10;99.90
13898;DHT22;7019;50.766;4.474;2023-04-01T00:21:44;9.10;99.90
13898;DHT22;7019;50.766;4.474;2023-04-01T00:24:12;9.10;99.90
13898;DHT22;7019;50.766;4.474;2023-04-01T00:26:39;9.10;99.90
13898;DHT22;7019;50.766;4.474;2023-04-01T00:29:08;9.10;99.90
13898;DHT22;7019;50.766;4.474;2023-04-01T00:31:35;9.10;99.90
13898;DHT22;7019;50.766;4.474;2023-04-01T00:34:02;9.10;99.90
13898;DHT22;7019;50.766;4.474;2023-04-01T00:36:29;9.10;99.90
13898;DHT22;7019;50.766;4.474;2023-04-01T00:38:58;9.10;99.90
13898;DHT22;7019;50.766;4.474;2023-04-01T00:41:26;9.10;99.90
13898;DHT22;7019;50.766;4.474;2023-04-01T00:44:13;9.10;99.90
13898;DHT22;7019;50.766;4.474;2023-04-01T00:46:41;9.10;99.90
13898;DHT22;7019;50.766;4.474;2023-04-01T00:49:09;9.10;99.90
13898;DHT22;7019;50.766;4.474;2023-04-01T00:51:37;9.10;99.90
13898;DHT22;7019;50.766;4.474;2023-04-01T00:54:06;9.00;99.90
13898;DHT22;7019;50.766;4.474;2023-04-01T00:56:37;9.10;99.90
13898;DHT22;7019;50.766;4.474;2023-04-01T00:59:08;9.00;99.90
13898;DHT22;7019;50.766;4.474;2023-04-01T01:01:37;9.10;99.90
13898;DHT22;7019;50.766;4.474;2023-04-01T01:04:04;9.10;99.90
13898;DHT22;7019;50.766;4.474;2023-04-01T01:06:39;9.10;99.90
13898;DHT22;7019;50.766;4.474;2023-04-01T01:09:28;9.10;99.90
13898;DHT22;7019;50.766;4.474;2023-04-01T01:12:03;9.10;99.90
13898;DHT22;7019;50.766;4.474;2023-04-01T01:14:44;9.10;99.90
13898;DHT22;7019;50.766;4.474;2023-04-01T01:17:18;9.10;99.90
13898;DHT22;7019;50.766;4.474;2023-04-01T01:23:07;9.10;99.90
13898;DHT22;7019;50.766;4.474;2023-04-01T01:25:43;9.10;99.90
13898;DHT22;7019;50.766;4.474;2023-04-01T01:28:28;9.10;99.90
13898;DHT22;7019;50.766;4.474;2023-04-01T01:31:07;9.10;99.90
13898;DHT22;7019;50.766;4.474;2023-04-01T01:33:54;9.10;99.90
13898;DHT22;7019;50.766;4.474;2023-04-01T01:36:26;9.10;99.90
13898;DHT22;7019;50.766;4.474;2023-04-01T01:38:57;9.10;99.90
13898;DHT22;7019;50.766;4.474;2023-04-01T01:41:25;9.10;99.90
13898;DHT22;7019;50.766;4.474;2023-04-01T01:43:53;9.10;99.90
13898;DHT22;7019;50.766;4.474;2023-04-01T01:46:24;9.10;99.90
13898;DHT22;7019;50.766;4.474;2023-04-01T01:48:54;9.10;99.90
13898;DHT22;7019;50.766;4.474;2023-04-01T01:51:22;9.10;99.90
13898;DHT22;7019;50.766;4.474;2023-04-01T01:53:51;9.10;99.90
13898;DHT22;7019;50.766;4.474;2023-04-01T01:56:19;9.10;99.90
13898;DHT22;7019;50.766;4.474;2023-04-01T01:58:49;9.10;99.90
13898;DHT22;7019;50.766;4.474;2023-04-01T02:01:21;9.00;99.90
13898;DHT22;7019;50.766;4.474;2023-04-01T02:03:52;9.00;99.90
13898;DHT22;7019;50.766;4.474;2023-04-01T02:06:22;9.00;99.90
13898;DHT22;7019;50.766;4.474;2023-04-01T02:08:53;9.00;99.90
13898;DHT22;7019;50.766;4.474;2023-04-01T02:11:26;9.00;99.90
13898;DHT22;7019;50.766;4.474;2023-04-01T02:13:56;9.00;99.90
13898;DHT22;7019;50.766;4.474;2023-04-01T02:16:31;9.00;99.90
13898;DHT22;7019;50.766;4.474;2023-04-01T02:19:01;9.00;99.90
13898;DHT22;7019;50.766;4.474;2023-04-01T02:21:33;9.00;99.90
13898;DHT22;7019;50.766;4.474;2023-04-01T02:24:05;9.00;99.90
13898;DHT22;7019;50.766;4.474;2023-04-01T02:26:34;9.00;99.90
13898;DHT22;7019;50.766;4.474;2023-04-01T02:29:03;9.00;99.90
13898;DHT22;7019;50.766;4.474;2023-04-01T02:31:31;9.00;99.90
13898;DHT22;7019;50.766;4.474;2023-04-01T02:33:59;9.00;99.90
13898;DHT22;7019;50.766;4.474;2023-04-01T02:36:26;9.00;99.90
13898;DHT22;7019;50.766;4.474;2023-04-01T02:38:54;9.00;99.90
13898;DHT22;7019;50.766;4.474;2023-04-01T02:41:26;9.10;99.90
13898;DHT22;7019;50.766;4.474;2023-04-01T02:43:53;9.00;99.90
13898;DHT22;7019;50.766;4.474;2023-04-01T02:46:20;9.00;99.90
13898;DHT22;7019;50.766;4.474;2023-04-01T02:48:47;9.00;99.90
13898;DHT22;7019;50.766;4.474;2023-04-01T02:51:14;9.00;99.90
13898;DHT22;7019;50.766;4.474;2023-04-01T02:53:41;9.00;99.90
13898;DHT22;7019;50.766;4.474;2023-04-01T02:56:08;9.00;99.90
13898;DHT22;7019;50.766;4.474;2023-04-01T02:58:37;8.90;99.90
13898;DHT22;7019;50.766;4.474;2023-04-01T03:01:04;8.90;99.90
13898;DHT22;7019;50.766;4.474;2023-04-01T03:03:32;8.90;99.90
13898;DHT22;7019;50.766;4.474;2023-04-01T03:06:05;8.90;99.90
13898;DHT22;7019;50.766;4.474;2023-04-01T03:08:32;8.90;99.90
13898;DHT22;7019;50.766;4.474;2023-04-01T03:10:59;8.90;99.90
13898;DHT22;7019;50.766;4.474;2023-04-01T03:13:26;8.80;99.90
13898;DHT22;7019;50.766;4.474;2023-04-01T03:15:55;8.90;99.90
13898;DHT22;7019;50.766;4.474;2023-04-01T03:18:22;8.80;99.90
13898;DHT22;7019;50.766;4.474;2023-04-01T03:20:49;8.80;99.90
13898;DHT22;7019;50.766;4.474;2023-04-01T03:23:16;8.80;99.90
13898;DHT22;7019;50.766;4.474;2023-04-01T03:25:45;8.80;99.90
13898;DHT22;7019;50.766;4.474;2023-04-01T03:28:12;8.80;99.90
13898;DHT22;7019;50.766;4.474;2023-04-01T03:30:39;8.80;99.90
13898;DHT22;7019;50.766;4.474;2023-04-01T03:33:08;8.80;99.90
13898;DHT22;7019;50.766;4.474;2023-04-01T03:35:35;8.80;99.90
13898;DHT22;7019;50.766;4.474;2023-04-01T03:38:02;8.80;99.90
13898;DHT22;7019;50.766;4.474;2023-04-01T03:40:30;8.80;99.90
13898;DHT22;7019;50.766;4.474;2023-04-01T03:42:58;8.80;99.90
13898;DHT22;7019;50.766;4.474;2023-04-01T03:45:25;8.80;99.90
13898;DHT22;7019;50.766;4.474;2023-04-01T03:47:52;8.80;99.90
13898;DHT22;7019;50.766;4.474;2023-04-01T03:50:21;8.80;99.90
13898;DHT22;7019;50.766;4.474;2023-04-01T03:52:48;8.80;99.90
13898;DHT22;7019;50.766;4.474;2023-04-01T03:55:16;8.80;99.90
13898;DHT22;7019;50.766;4.474;2023-04-01T03:57:44;8.80;99.90
13898;DHT22;7019;50.766;4.474;2023-04-01T04:00:12;8.80;99.90
13898;DHT22;7019;50.766;4.474;2023-04-01T04:02:39;8.70;99.90
13898;DHT22;7019;50.766;4.474;2023-04-01T04:05:07;8.70;99.90
13898;DHT22;7019;50.766;4.474;2023-04-01T04:07:35;8.70;99.90
13898;DHT22;7019;50.766;4.474;2023-04-01T04:10:03;8.70;99.90
13898;DHT22;7019;50.766;4.474;2023-04-01T04:12:30;8.70;99.90
13898;DHT22;7019;50.766;4.474;2023-04-01T04:14:57;8.70;99.90
13898;DHT22;7019;50.766;4.474;2023-04-01T04:17:24;8.70;99.90
13898;DHT22;7019;50.766;4.474;2023-04-01T04:19:51;8.70;99.90
13898;DHT22;7019;50.766;4.474;2023-04-01T04:22:18;8.70;99.90
13898;DHT22;7019;50.766;4.474;2023-04-01T04:24:47;8.70;99.90
13898;DHT22;7019;50.766;4.474;2023-04-01T04:27:14;8.70;99.90
13898;DHT22;7019;50.766;4.474;2023-04-01T04:29:41;8.70;99.90
13898;DHT22;7019;50.766;4.474;2023-04-01T04:32:08;8.70;99.90
13898;DHT22;7019;50.766;4.474;2023-04-01T04:34:35;8.70;99.90
13898;DHT22;7019;50.766;4.474;2023-04-01T04:37:02;8.70;99.90
13898;DHT22;7019;50.766;4.474;2023-04-01T04:39:30;8.70;99.90
13898;DHT22;7019;50.766;4.474;2023-04-01T04:41:58;8.70;99.90
13898;DHT22;7019;50.766;4.474;2023-04-01T04:44:25;8.70;99.90
13898;DHT22;7019;50.766;4.474;2023-04-01T04:46:52;8.70;99.90
13898;DHT22;7019;50.766;4.474;2023-04-01T04:49:19;8.70;99.90
13898;DHT22;7019;50.766;4.474;2023-04-01T04:51:46;8.70;99.90
13898;DHT22;7019;50.766;4.474;2023-04-01T04:54:13;8.70;99.90
13898;DHT22;7019;50.766;4.474;2023-04-01T04:56:40;8.70;99.90
13898;DHT22;7019;50.766;4.474;2023-04-01T04:59:09;8.70;99.90
13898;DHT22;7019;50.766;4.474;2023-04-01T05:01:36;8.70;99.90
13898;DHT22;7019;50.766;4.474;2023-04-01T05:04:03;8.70;99.90
13898;DHT22;7019;50.766;4.474;2023-04-01T05:06:30;8.70;99.90
13898;DHT22;7019;50.766;4.474;2023-04-01T05:08:57;8.70;99.90
13898;DHT22;7019;50.766;4.474;2023-04-01T05:11:25;8.70;99.90
13898;DHT22;7019;50.766;4.474;2023-04-01T05:13:52;8.70;99.90
13898;DHT22;7019;50.766;4.474;2023-04-01T05:16:21;8.70;99.90
13898;DHT22;7019;50.766;4.474;2023-04-01T05:18:48;8.70;99.90
13898;DHT22;7019;50.766;4.474;2023-04-01T05:21:15;8.70;99.90
13898;DHT22;7019;50.766;4.474;2023-04-01T05:23:43;8.70;99.90
13898;DHT22;7019;50.766;4.474;2023-04-01T05:26:11;8.70;99.90
13898;DHT22;7019;50.766;4.474;2023-04-01T05:28:39;8.70;99.90
13898;DHT22;7019;50.766;4.474;2023-04-01T05:31:07;8.70;99.90
13898;DHT22;7019;50.766;4.474;2023-04-01T05:33:35;8.70;99.90
13898;DHT22;7019;50.766;4.474;2023-04-01T05:36:07;8.70;99.90
13898;DHT22;7019;50.766;4.474;2023-04-01T05:38:34;8.70;99.90
13898;DHT22;7019;50.766;4.474;2023-04-01T05:41:02;8.70;99.90
13898;DHT22;7019;50.766;4.474;2023-04-01T05:43:29;8.70;99.90
13898;DHT22;7019;50.766;4.474;2023-04-01T05:45:56;8.70;99.90
13898;DHT22;7019;50.766;4.474;2023-04-01T05:48:23;8.70;99.90
13898;DHT22;7019;50.766;4.474;2023-04-01T05:50:52;8.70;99.90
13898;DHT22;7019;50.766;4.474;2023-04-01T05:53:19;8.70;99.90
13898;DHT22;7019;50.766;4.474;2023-04-01T05:55:46;8.70;99.90
13898;DHT22;7019;50.766;4.474;2023-04-01T05:58:13;8.70;99.90
13898;DHT22;7019;50.766;4.474;2023-04-01T06:00:40;8.70;99.90
13898;DHT22;7019;50.766;4.474;2023-04-01T06:03:08;8.70;99.90
13898;DHT22;7019;50.766;4.474;2023-04-01T06:05:39;8.70;99.90
13898;DHT22;7019;50.766;4.474;2023-04-01T06:08:11;8.70;99.90
13898;DHT22;7019;50.766;4.474;2023-04-01T06:10:47;8.70;99.90
13898;DHT22;7019;50.766;4.474;2023-04-01T06:13:26;8.70;99.90
13898;DHT22;7019;50.766;4.474;2023-04-01T06:16:02;8.70;99.90
13898;DHT22;7019;50.766;4.474;2023-04-01T06:19:10;8.70;99.90
13898;DHT22;7019;50.766;4.474;2023-04-01T06:22:26;8.70;99.90
13898;DHT22;7019;50.766;4.474;2023-04-01T06:25:13;8.70;99.90
13898;DHT22;7019;50.766;4.474;2023-04-01T06:27:53;8.70;99.90
13898;DHT22;7019;50.766;4.474;2023-04-01T06:30:33;8.70;99.90
13898;DHT22;7019;50.766;4.474;2023-04-01T06:33:12;8.70;99.90
13898;DHT22;7019;50.766;4.474;2023-04-01T06:35:56;8.70;99.90
13898;DHT22;7019;50.766;4.474;2023-04-01T06:38:49;8.70;99.90
13898;DHT22;7019;50.766;4.474;2023-04-01T06:41:46;8.70;99.90
13898;DHT22;7019;50.766;4.474;2023-04-01T06:44:23;8.70;99.90
13898;DHT22;7019;50.766;4.474;2023-04-01T06:46:58;8.70;99.90
13898;DHT22;7019;50.766;4.474;2023-04-01T06:49:39;8.70;99.90
13898;DHT22;7019;50.766;4.474;2023-04-01T06:52:15;8.70;99.90
13898;DHT22;7019;50.766;4.474;2023-04-01T06:54:48;8.70;99.90
13898;DHT22;7019;50.766;4.474;2023-04-01T06:57:23;8.80;99.90
13898;DHT22;7019;50.766;4.474;2023-04-01T06:59:52;8.80;99.90
13898;DHT22;7019;50.766;4.474;2023-04-01T07:02:25;8.80;99.90
13898;DHT22;7019;50.766;4.474;2023-04-01T07:04:57;8.80;99.90
13898;DHT22;7019;50.766;4.474;2023-04-01T07:07:33;8.80;99.90
13898;DHT22;7019;50.766;4.474;2023-04-01T07:10:05;8.80;99.90
13898;DHT22;7019;50.766;4.474;2023-04-01T07:12:44;8.80;99.90
13898;DHT22;7019;50.766;4.474;2023-04-01T07:15:18;8.90;99.90
13898;DHT22;7019;50.766;4.474;2023-04-01T07:17:48;8.80;99.90
13898;DHT22;7019;50.766;4.474;2023-04-01T07:20:22;8.80;99.90
13898;DHT22;7019;50.766;4.474;2023-04-01T07:22:54;8.90;99.90
13898;DHT22;7019;50.766;4.474;2023-04-01T07:25:24;8.90;99.90
13898;DHT22;7019;50.766;4.474;2023-04-01T07:27:59;8.90;99.90
13898;DHT22;7019;50.766;4.474;2023-04-01T07:30:30;8.90;99.90
13898;DHT22;7019;50.766;4.474;2023-04-01T07:33:05;8.90;99.90
13898;DHT22;7019;50.766;4.474;2023-04-01T07:35:39;9.00;99.90
13898;DHT22;7019;50.766;4.474;2023-04-01T07:38:17;8.90;99.90
13898;DHT22;7019;50.766;4.474;2023-04-01T07:40:55;8.90;99.90
13898;DHT22;7019;50.766;4.474;2023-04-01T07:43:47;8.90;99.90
13898;DHT22;7019;50.766;4.474;2023-04-01T07:46:26;8.90;99.90
13898;DHT22;7019;50.766;4.474;2023-04-01T07:49:00;9.00;99.90
13898;DHT22;7019;50.766;4.474;2023-04-01T07:51:37;9.00;99.90
13898;DHT22;7019;50.766;4.474;2023-04-01T07:54:11;9.00;99.90
13898;DHT22;7019;50.766;4.474;2023-04-01T07:56:44;9.00;99.90
13898;DHT22;7019;50.766;4.474;2023-04-01T07:59:18;9.10;99.90
13898;DHT22;7019;50.766;4.474;2023-04-01T08:01:56;9.10;99.90
13898;DHT22;7019;50.766;4.474;2023-04-01T08:04:40;9.20;99.90
13898;DHT22;7019;50.766;4.474;2023-04-01T08:07:12;9.20;99.90
13898;DHT22;7019;50.766;4.474;2023-04-01T08:09:45;9.20;99.90
13898;DHT22;7019;50.766;4.474;2023-04-01T08:12:26;9.30;99.90
13898;DHT22;7019;50.766;4.474;2023-04-01T08:15:05;9.20;99.90
13898;DHT22;7019;50.766;4.474;2023-04-01T08:17:41;9.20;99.90
13898;DHT22;7019;50.766;4.474;2023-04-01T08:20:28;9.30;99.90
13898;DHT22;7019;50.766;4.474;2023-04-01T08:23:03;9.20;99.90
13898;DHT22;7019;50.766;4.474;2023-04-01T08:25:37;9.30;99.90
13898;DHT22;7019;50.766;4.474;2023-04-01T08:28:13;9.30;99.90
13898;DHT22;7019;50.766;4.474;2023-04-01T08:30:47;9.40;99.90
13898;DHT22;7019;50.766;4.474;2023-04-01T08:33:18;9.40;99.90
13898;DHT22;7019;50.766;4.474;2023-04-01T08:35:49;9.40;99.90
13898;DHT22;7019;50.766;4.474;2023-04-01T08:38:22;9.60;99.90
13898;DHT22;7019;50.766;4.474;2023-04-01T08:41:20;9.60;99.90
13898;DHT22;7019;50.766;4.474;2023-04-01T08:44:22;9.70;99.90
13898;DHT22;7019;50.766;4.474;2023-04-01T08:50:23;9.60;99.90
13898;DHT22;7019;50.766;4.474;2023-04-01T08:53:00;9.60;99.90
13898;DHT22;7019;50.766;4.474;2023-04-01T08:55:41;9.60;99.90
13898;DHT22;7019;50.766;4.474;2023-04-01T09:01:20;9.70;99.90
13898;DHT22;7019;50.766;4.474;2023-04-01T09:04:13;9.70;99.90
13898;DHT22;7019;50.766;4.474;2023-04-01T09:06:52;9.70;99.90
13898;DHT22;7019;50.766;4.474;2023-04-01T09:15:50;9.60;99.90
13898;DHT22;7019;50.766;4.474;2023-04-01T09:21:42;9.30;99.90
13898;DHT22;7019;50.766;4.474;2023-04-01T09:27:26;9.30;99.90
13898;DHT22;7019;50.766;4.474;2023-04-01T09:33:22;9.40;99.90
13898;DHT22;7019;50.766;4.474;2023-04-01T09:36:03;9.50;99.90
13898;DHT22;7019;50.766;4.474;2023-04-01T09:38:38;9.60;99.90
13898;DHT22;7019;50.766;4.474;2023-04-01T09:41:22;9.80;99.90
13898;DHT22;7019;50.766;4.474;2023-04-01T09:44:00;9.90;99.90
13898;DHT22;7019;50.766;4.474;2023-04-01T09:46:41;9.90;99.90
13898;DHT22;7019;50.766;4.474;2023-04-01T09:49:38;10.10;99.90
13898;DHT22;7019;50.766;4.474;2023-04-01T09:52:25;10.20;99.90
13898;DHT22;7019;50.766;4.474;2023-04-01T09:55:06;10.20;99.90
13898;DHT22;7019;50.766;4.474;2023-04-01T10:04:25;10.30;99.90
13898;DHT22;7019;50.766;4.474;2023-04-01T10:07:28;10.40;99.90
13898;DHT22;7019;50.766;4.474;2023-04-01T10:13:57;10.60;99.90
13898;DHT22;7019;50.766;4.474;2023-04-01T10:19:51;11.00;99.90
13898;DHT22;7019;50.766;4.474;2023-04-01T10:35:28;11.60;99.90
13898;DHT22;7019;50.766;4.474;2023-04-01T10:38:29;11.60;99.90
13898;DHT22;7019;50.766;4.474;2023-04-01T10:41:36;11.40;99.90
13898;DHT22;7019;50.766;4.474;2023-04-01T10:50:44;11.10;99.90
13898;DHT22;7019;50.766;4.474;2023-04-01T10:53:34;11.10;99.90
13898;DHT22;7019;50.766;4.474;2023-04-01T11:06:11;11.00;99.90
13898;DHT22;7019;50.766;4.474;2023-04-01T11:09:09;11.10;99.90
13898;DHT22;7019;50.766;4.474;2023-04-01T11:12:36;11.20;99.90
13898;DHT22;7019;50.766;4.474;2023-04-01T11:15:31;11.10;99.90
13898;DHT22;7019;50.766;4.474;2023-04-01T11:18:49;11.00;99.90
13898;DHT22;7019;50.766;4.474;2023-04-01T11:21:47;11.20;99.90
13898;DHT22;7019;50.766;4.474;2023-04-01T11:27:41;11.10;99.90
13898;DHT22;7019;50.766;4.474;2023-04-01T11:30:26;11.00;99.90
13898;DHT22;7019;50.766;4.474;2023-04-01T11:33:01;10.90;99.90
13898;DHT22;7019;50.766;4.474;2023-04-01T11:35:59;10.80;99.90
13898;DHT22;7019;50.766;4.474;2023-04-01T11:38:46;10.70;99.90
13898;DHT22;7019;50.766;4.474;2023-04-01T11:41:26;10.90;99.90
13898;DHT22;7019;50.766;4.474;2023-04-01T11:44:09;10.90;99.90
13898;DHT22;7019;50.766;4.474;2023-04-01T11:49:42;10.90;99.90
13898;DHT22;7019;50.766;4.474;2023-04-01T11:52:33;10.80;99.90
13898;DHT22;7019;50.766;4.474;2023-04-01T11:55:19;10.80;99.90
13898;DHT22;7019;50.766;4.474;2023-04-01T11:58:21;10.90;99.90
13898;DHT22;7019;50.766;4.474;2023-04-01T12:01:10;11.00;99.90
13898;DHT22;7019;50.766;4.474;2023-04-01T12:04:03;11.20;99.90
13898;DHT22;7019;50.766;4.474;2023-04-01T12:06:38;11.20;99.90
13898;DHT22;7019;50.766;4.474;2023-04-01T12:09:13;11.20;99.90
13898;DHT22;7019;50.766;4.474;2023-04-01T12:11:52;11.20;99.90
13898;DHT22;7019;50.766;4.474;2023-04-01T12:14:32;11.10;99.90
13898;DHT22;7019;50.766;4.474;2023-04-01T12:17:09;11.10;99.90
13898;DHT22;7019;50.766;4.474;2023-04-01T12:19:44;11.20;99.90
13898;DHT22;7019;50.766;4.474;2023-04-01T12:22:34;11.30;99.90
13898;DHT22;7019;50.766;4.474;2023-04-01T12:25:21;11.30;99.90
13898;DHT22;7019;50.766;4.474;2023-04-01T12:28:02;11.10;99.90
13898;DHT22;7019;50.766;4.474;2023-04-01T12:30:42;11.00;99.90
13898;DHT22;7019;50.766;4.474;2023-04-01T12:33:43;10.90;99.90
13898;DHT22;7019;50.766;4.474;2023-04-01T12:36:29;10.80;99.90
13898;DHT22;7019;50.766;4.474;2023-04-01T12:39:17;10.80;99.90
13898;DHT22;7019;50.766;4.474;2023-04-01T12:41:53;10.80;99.90
13898;DHT22;7019;50.766;4.474;2023-04-01T12:44:44;10.90;99.90
13898;DHT22;7019;50.766;4.474;2023-04-01T12:50:26;10.90;99.90
13898;DHT22;7019;50.766;4.474;2023-04-01T12:55:49;10.90;99.90
13898;DHT22;7019;50.766;4.474;2023-04-01T13:04:57;10.50;99.90
13898;DHT22;7019;50.766;4.474;2023-04-01T13:07:38;10.40;99.90
13898;DHT22;7019;50.766;4.474;2023-04-01T13:10:16;10.30;99.90
13898;DHT22;7019;50.766;4.474;2023-04-01T13:13:08;10.10;99.90
13898;DHT22;7019;50.766;4.474;2023-04-01T13:15:42;10.10;99.90
13898;DHT22;7019;50.766;4.474;2023-04-01T13:18:22;10.00;99.90
13898;DHT22;7019;50.766;4.474;2023-04-01T13:20:57;10.00;99.90
13898;DHT22;7019;50.766;4.474;2023-04-01T13:23:34;10.00;99.90
13898;DHT22;7019;50.766;4.474;2023-04-01T13:26:13;10.20;99.90
13898;DHT22;7019;50.766;4.474;2023-04-01T13:28:50;10.20;99.90
13898;DHT22;7019;50.766;4.474;2023-04-01T13:31:36;10.30;99.90
13898;DHT22;7019;50.766;4.474;2023-04-01T13:34:19;10.30;99.90
13898;DHT22;7019;50.766;4.474;2023-04-01T13:36:59;10.20;99.90
13898;DHT22;7019;50.766;4.474;2023-04-01T13:39:40;10.10;99.90
13898;DHT22;7019;50.766;4.474;2023-04-01T13:42:18;10.10;99.90
13898;DHT22;7019;50.766;4.474;2023-04-01T13:44:51;10.20;99.90
13898;DHT22;7019;50.766;4.474;2023-04-01T13:47:43;10.20;99.90
13898;DHT22;7019;50.766;4.474;2023-04-01T13:54:10;10.10;99.90
13898;DHT22;7019;50.766;4.474;2023-04-01T13:56:50;10.10;99.90
13898;DHT22;7019;50.766;4.474;2023-04-01T13:59:52;10.20;99.90
13898;DHT22;7019;50.766;4.474;2023-04-01T14:02:59;10.30;99.90
13898;DHT22;7019;50.766;4.474;2023-04-01T14:05:39;10.30;99.90
13898;DHT22;7019;50.766;4.474;2023-04-01T14:08:20;10.20;99.90
13898;DHT22;7019;50.766;4.474;2023-04-01T14:11:03;10.10;99.90
13898;DHT22;7019;50.766;4.474;2023-04-01T14:13:39;10.10;99.90
13898;DHT22;7019;50.766;4.474;2023-04-01T14:16:33;10.10;99.90
13898;DHT22;7019;50.766;4.474;2023-04-01T14:19:17;10.00;99.90
13898;DHT22;7019;50.766;4.474;2023-04-01T14:21:55;10.00;99.90
13898;DHT22;7019;50.766;4.474;2023-04-01T14:24:50;9.90;99.90
13898;DHT22;7019;50.766;4.474;2023-04-01T14:27:44;10.00;99.90
13898;DHT22;7019;50.766;4.474;2023-04-01T14:30:39;10.10;99.90
13898;DHT22;7019;50.766;4.474;2023-04-01T14:33:21;10.40;99.90
13898;DHT22;7019;50.766;4.474;2023-04-01T14:36:02;10.60;99.90
13898;DHT22;7019;50.766;4.474;2023-04-01T14:38:47;10.80;99.90
13898;DHT22;7019;50.766;4.474;2023-04-01T14:41:29;10.90;99.90
13898;DHT22;7019;50.766;4.474;2023-04-01T14:44:24;10.90;99.90
13898;DHT22;7019;50.766;4.474;2023-04-01T14:47:22;10.80;99.90
13898;DHT22;7019;50.766;4.474;2023-04-01T14:49:54;10.60;99.90
13898;DHT22;7019;50.766;4.474;2023-04-01T14:52:31;10.50;99.90
13898;DHT22;7019;50.766;4.474;2023-04-01T14:55:00;10.40;99.90
13898;DHT22;7019;50.766;4.474;2023-04-01T14:57:30;10.40;99.90
13898;DHT22;7019;50.766;4.474;2023-04-01T15:00:09;10.30;99.90
13898;DHT22;7019;50.766;4.474;2023-04-01T15:02:47;10.30;99.90
13898;DHT22;7019;50.766;4.474;2023-04-01T15:05:31;10.40;99.90
13898;DHT22;7019;50.766;4.474;2023-04-01T15:08:16;10.30;99.90
13898;DHT22;7019;50.766;4.474;2023-04-01T15:11:02;10.30;99.90
13898;DHT22;7019;50.766;4.474;2023-04-01T15:13:53;10.40;99.90
13898;DHT22;7019;50.766;4.474;2023-04-01T15:16:29;10.30;99.90
13898;DHT22;7019;50.766;4.474;2023-04-01T15:19:10;10.30;99.90
13898;DHT22;7019;50.766;4.474;2023-04-01T15:24:47;10.30;99.90
13898;DHT22;7019;50.766;4.474;2023-04-01T15:27:35;10.20;99.90
13898;DHT22;7019;50.766;4.474;2023-04-01T15:30:20;10.10;99.90
13898;DHT22;7019;50.766;4.474;2023-04-01T15:33:07;10.10;99.90
13898;DHT22;7019;50.766;4.474;2023-04-01T15:35:43;10.00;99.90
13898;DHT22;7019;50.766;4.474;2023-04-01T15:38:22;9.90;99.90
13898;DHT22;7019;50.766;4.474;2023-04-01T15:40:56;9.70;99.90
13898;DHT22;7019;50.766;4.474;2023-04-01T15:43:31;9.70;99.90
13898;DHT22;7019;50.766;4.474;2023-04-01T15:46:19;9.60;99.90
13898;DHT22;7019;50.766;4.474;2023-04-01T15:48:58;9.60;99.90
13898;DHT22;7019;50.766;4.474;2023-04-01T15:51:48;9.60;99.90
13898;DHT22;7019;50.766;4.474;2023-04-01T15:57:20;9.60;99.90
13898;DHT22;7019;50.766;4.474;2023-04-01T16:02:48;9.50;99.90
13898;DHT22;7019;50.766;4.474;2023-04-01T16:05:29;9.60;99.90
13898;DHT22;7019;50.766;4.474;2023-04-01T16:10:59;9.50;99.90
13898;DHT22;7019;50.766;4.474;2023-04-01T16:13:40;9.50;99.90
13898;DHT22;7019;50.766;4.474;2023-04-01T16:16:19;9.50;99.90
13898;DHT22;7019;50.766;4.474;2023-04-01T16:19:10;9.30;99.90
13898;DHT22;7019;50.766;4.474;2023-04-01T16:21:46;9.20;99.90
13898;DHT22;7019;50.766;4.474;2023-04-01T16:24:20;9.20;99.90
13898;DHT22;7019;50.766;4.474;2023-04-01T16:26:53;9.20;99.90
13898;DHT22;7019;50.766;4.474;2023-04-01T16:29:28;9.20;99.90
13898;DHT22;7019;50.766;4.474;2023-04-01T16:32:09;9.10;99.90
13898;DHT22;7019;50.766;4.474;2023-04-01T16:34:41;9.10;99.90
13898;DHT22;7019;50.766;4.474;2023-04-01T16:37:14;9.10;99.90
13898;DHT22;7019;50.766;4.474;2023-04-01T16:39:46;9.10;99.90
13898;DHT22;7019;50.766;4.474;2023-04-01T16:42:31;9.00;99.90
13898;DHT22;7019;50.766;4.474;2023-04-01T16:45:17;8.90;99.90
13898;DHT22;7019;50.766;4.474;2023-04-01T16:47:49;8.90;99.90
13898;DHT22;7019;50.766;4.474;2023-04-01T16:50:20;8.90;99.90
13898;DHT22;7019;50.766;4.474;2023-04-01T16:52:57;8.80;99.90
13898;DHT22;7019;50.766;4.474;2023-04-01T16:55:35;8.80;99.90
13898;DHT22;7019;50.766;4.474;2023-04-01T16:58:02;8.70;99.90
13898;DHT22;7019;50.766;4.474;2023-04-01T17:00:37;8.70;99.90
13898;DHT22;7019;50.766;4.474;2023-04-01T17:03:12;8.70;99.90
13898;DHT22;7019;50.766;4.474;2023-04-01T17:05:57;8.70;99.90
13898;DHT22;7019;50.766;4.474;2023-04-01T17:08:38;8.70;99.90
13898;DHT22;7019;50.766;4.474;2023-04-01T17:11:13;8.70;99.90
13898;DHT22;7019;50.766;4.474;2023-04-01T17:13:48;8.70;99.90
13898;DHT22;7019;50.766;4.474;2023-04-01T17:19:32;8.80;99.90
13898;DHT22;7019;50.766;4.474;2023-04-01T17:22:11;8.70;99.90
13898;DHT22;7019;50.766;4.474;2023-04-01T17:24:56;8.70;99.90
13898;DHT22;7019;50.766;4.474;2023-04-01T17:27:38;8.70;99.90
13898;DHT22;7019;50.766;4.474;2023-04-01T17:30:28;8.60;99.90
13898;DHT22;7019;50.766;4.474;2023-04-01T17:33:31;8.70;99.90
13898;DHT22;7019;50.766;4.474;2023-04-01T17:36:10;8.60;99.90
13898;DHT22;7019;50.766;4.474;2023-04-01T17:39:12;8.60;99.90
13898;DHT22;7019;50.766;4.474;2023-04-01T17:41:51;8.60;99.90
13898;DHT22;7019;50.766;4.474;2023-04-01T17:44:32;8.60;99.90
13898;DHT22;7019;50.766;4.474;2023-04-01T17:50:18;8.60;99.90
13898;DHT22;7019;50.766;4.474;2023-04-01T17:53:03;8.50;99.90
13898;DHT22;7019;50.766;4.474;2023-04-01T17:56:08;8.50;99.90
13898;DHT22;7019;50.766;4.474;2023-04-01T17:58:45;8.50;99.90
13898;DHT22;7019;50.766;4.474;2023-04-01T18:01:41;8.50;99.90
13898;DHT22;7019;50.766;4.474;2023-04-01T18:04:34;8.60;99.90
13898;DHT22;7019;50.766;4.474;2023-04-01T18:10:03;8.50;99.90
13898;DHT22;7019;50.766;4.474;2023-04-01T18:12:40;8.50;99.90
13898;DHT22;7019;50.766;4.474;2023-04-01T18:15:19;8.50;99.90
13898;DHT22;7019;50.766;4.474;2023-04-01T18:17:59;8.60;99.90
13898;DHT22;7019;50.766;4.474;2023-04-01T18:20:43;8.60;99.90
13898;DHT22;7019;50.766;4.474;2023-04-01T18:23:23;8.50;99.90
13898;DHT22;7019;50.766;4.474;2023-04-01T18:25:54;8.50;99.90
13898;DHT22;7019;50.766;4.474;2023-04-01T18:28:35;8.50;99.90
13898;DHT22;7019;50.766;4.474;2023-04-01T18:31:08;8.50;99.90
13898;DHT22;7019;50.766;4.474;2023-04-01T18:33:45;8.50;99.90
13898;DHT22;7019;50.766;4.474;2023-04-01T18:36:19;8.50;99.90
13898;DHT22;7019;50.766;4.474;2023-04-01T18:38:50;8.50;99.90
13898;DHT22;7019;50.766;4.474;2023-04-01T18:41:29;8.50;99.90
13898;DHT22;7019;50.766;4.474;2023-04-01T18:44:11;8.50;99.90
13898;DHT22;7019;50.766;4.474;2023-04-01T18:46:52;8.50;99.90
13898;DHT22;7019;50.766;4.474;2023-04-01T18:49:29;8.40;99.90
13898;DHT22;7019;50.766;4.474;2023-04-01T18:51:58;8.40;99.90